Historyczne dane pomiarowe

Dodano dane terminowe – wersja testowa.

Dane z okresu 1951-2019

Wersja bazy: 1.34 [2019-03-16, lista zmian], aktualizacja planowana na 2019-04-15

Dane meteo z obszaru Polski uzyskane na podstawie danych udostępnionych przez Instytut Meteorologii i Gospodarki Wodnej – Państwowy Instytut Badawczy.

 

Wybierz Datę:    

       

TemperaturaWilgotnośćWiatrCiśnienieOpadyŚniegCzas trwania zjawisk
 Stacja t tx tn tng RH VA  wxwx mslp ppp RRR   cm mm wxwxwxwxwxwxwx
2004-06-13 2.9 5.3 1.9- 97.8 7.4 7.4 4.8 0.8 0.0- 803.5 2.1 1.6 0.5- 0.0 0.0 4.0-- 22.3---
2004-06-14 5.1 10.2 1.5- 85.9 7.5 5.5 5.4 0.5 0.0- 807.4 0.0 0.0 0.0- 0.0 10.8--- 4.6---
2004-06-15 8.6 13.5 4.4- 75.9 8.7 4.6 4.0 0.0 0.0- 802.0 3.0 0.0 3.0- 0.0 11.6--- 0.5---
2004-06-16 2.9 9.9 -0.1- 92.0 7.0 7.4 6.5 2.2 0.0- 795.4 1.5 0.4 1.1- 0.0 5.1 3.7 0.8 0.2 14.1---
2004-06-17 2.0 7.1 -2.3- 84.6 5.9 5.3 5.0 0.6 0.0- 796.7 0.5 0.0 0.5- 0.0 11.2--- 4.5---
2004-06-18 4.6 7.4 2.4- 87.0 7.4 6.0 6.3 0.0 0.0- 792.8 0.8 0.0 0.8- 0.0 4.3 2.5-- 6.3---
2004-06-19 5.4 9.6 1.9- 81.9 7.4 6.3 6.8 3.2 0.0- 793.7 16.5 0.2 16.3- 0.0 8.4 2.7-- 2.3-- 2.5
2004-06-20 6.3 7.9 4.7- 96.4 9.2 7.9 7.6 6.2 0.0- 793.3 16.2 7.0 9.2- 0.0 0.0 4.3-- 16.9-- 1.8
2004-06-21 4.3 6.9 3.0- 97.6 8.1 6.5 4.4 1.7 0.0- 797.1 2.2 2.2 0.0- 0.0 2.2 5.2-- 16.3---
2004-06-22 5.8 9.4 2.0- 79.0 7.3 4.6 2.6 0.0 0.0- 804.4 0.0 0.0 0.0- 0.0 6.4-------
2004-06-23 8.2 11.7 5.7- 77.3 8.4 4.6 6.6 0.0 0.0- 802.7 0.0 0.0 0.0- 0.0 12.4-------
2004-06-24 8.9 13.5 6.4- 81.6 9.2 5.3 4.1 0.0 0.0- 799.8 0.8 0.8 0.0- 0.0 6.5 1.0-- 1.3---
2004-06-25 4.0 11.0 0.2- 86.5 7.1 6.4 4.3 0.0 0.0- 801.6 15.5 15.5 0.0- 0.0 0.4 5.1 0.9 2.5 7.9---
2004-06-26 2.3 4.6 0.2- 92.6 6.7 7.4 4.0 0.0 0.0- 803.9 0.4 0.4 0.0- 0.0 0.3 0.6- 0.2 9.2---
2004-06-27 4.3 8.6 1.0- 83.1 6.9 5.9 5.3 1.8 0.0- 804.8 0.2 0.2 0.0- 0.0 3.2 0.6-- 2.7---
2004-06-28 7.1 11.0 3.9- 89.1 8.9 7.3 7.8 2.0 0.0- 804.5 3.2 3.2 0.0- 0.0 6.5 1.3-- 8.5---
2004-06-29 2.5 6.5 1.1- 93.3 6.8 7.3 4.8 0.0 0.0- 803.8 3.3 3.3 0.0- 0.0 3.3 0.9-- 12.7---
2004-06-30 2.4 5.4 -0.4- 92.0 6.7 7.0 6.5 0.0 0.0- 802.6 0.0 0.0 0.0- 0.0 2.0--- 2.2---
2004-07-01 7.0 11.6 3.2- 83.3 8.3 5.5 7.0 2.2 0.0- 801.6 21.5 0.0 21.5- 0.0 7.8 5.5-- 3.3---
2004-07-02 5.1 8.2 3.8- 87.3 7.7 6.3 4.1 0.0 0.0- 799.1 1.1 1.1 0.0- 0.0 3.3 2.4-- 3.9---
2004-07-03 4.6 9.3 1.8- 82.5 7.0 6.0 4.6 2.6 0.0- 800.4 0.6 0.0 0.6- 0.0 5.5 0.8-- 2.8---
2004-07-04 4.7 9.4 1.2- 78.5 6.7 4.5 5.8 2.5 0.0- 804.0 0.0 0.0 0.0- 0.0 10.9-------
2004-07-05 8.4 12.7 5.0- 85.4 9.4 6.8 8.8 8.3 0.0- 804.3 4.9 2.7 2.2- 0.0 8.7 2.3-- 0.3---
2004-07-06 5.6 9.1 2.4- 89.5 8.2 5.4 4.3 0.6 0.0- 804.8 12.6 12.6 0.0- 0.0 0.9 5.9-- 7.3---
2004-07-07 6.7 10.7 1.9- 87.9 8.8 5.1 4.6 2.6 0.0- 805.6 0.0 0.0 0.0- 0.0 9.5--- 9.7---
2004-07-08 11.0 15.6 6.8- 88.1 11.5 5.8 5.9 5.8 0.0- 804.3 0.0 0.0 0.0- 0.0 11.9-------
2004-07-09 12.6 16.5 10.0- 77.3 11.1 3.5 11.0 14.2 1.8- 800.7 0.0 0.0 0.0- 0.0 10.8--- 3.1---
2004-07-10 6.1 10.5 4.7- 93.9 8.8 6.1 3.4 0.0 0.0- 799.7 0.0 0.0 0.0- 0.0 1.3 1.0-- 17.6---
2004-07-11 4.0 7.3 1.3- 93.1 7.6 5.9 2.0 0.0 0.0- 796.1 5.6 1.3 4.3- 0.0 4.7 6.3-- 13.8-- 1.5
2004-07-12 2.6 5.7 -0.4- 92.0 6.7 6.3 4.0 0.0 0.0- 793.2 0.5 0.5 0.0- 0.0 3.0 1.2 0.1- 9.5---
166.0 ms

 

Źródłem pochodzenia danych jest Instytut Meteorologii i Gospodarki Wodnej – Państwowy Instytut Badawczy. Dane Instytutu Meteorologii i Gospodarki Wodnej – Państwowego Instytutu Badawczego zostały przetworzone.

Dane źródłowe można odnaleźć na stronie https://dane.imgw.pl